createdAt,value
2022-11-08T00:00:06.209Z,20.10
2022-11-08T00:02:34.503Z,20.10
2022-11-08T00:05:20.016Z,20.20
2022-11-08T00:08:06.736Z,20.20
2022-11-08T00:10:52.325Z,20.30
2022-11-08T00:13:37.710Z,20.20
2022-11-08T00:16:05.946Z,19.90
2022-11-08T00:18:33.915Z,19.90
2022-11-08T00:21:03.239Z,19.60
2022-11-08T00:23:32.557Z,19.40
2022-11-08T00:26:00.482Z,19.00
2022-11-08T00:28:28.453Z,19.10
2022-11-08T00:30:56.425Z,19.00
2022-11-08T00:33:24.361Z,19.10
2022-11-08T00:35:52.314Z,19.30
2022-11-08T00:38:20.489Z,19.30
2022-11-08T00:40:50.014Z,19.50
2022-11-08T00:43:17.984Z,19.40
2022-11-08T00:45:45.943Z,19.10
2022-11-08T00:48:13.956Z,19.00
2022-11-08T00:50:42.175Z,19.00
2022-11-08T00:53:10.167Z,19.00
2022-11-08T00:55:38.136Z,19.00
2022-11-08T00:58:08.810Z,19.10
2022-11-08T01:00:36.774Z,19.30
2022-11-08T01:03:19.969Z,19.00
2022-11-08T01:05:48.589Z,19.30
2022-11-08T01:08:17.256Z,19.70
2022-11-08T01:10:47.539Z,20.20
2022-11-08T01:13:18.217Z,20.00
2022-11-08T01:15:47.063Z,20.30
2022-11-08T01:18:17.166Z,20.40
2022-11-08T01:20:47.714Z,20.80
2022-11-08T01:23:16.807Z,20.40
2022-11-08T01:25:47.005Z,20.40
2022-11-08T01:28:16.959Z,20.60
2022-11-08T01:30:46.207Z,20.80
2022-11-08T01:33:15.205Z,20.80
2022-11-08T01:35:46.887Z,20.80
2022-11-08T01:38:15.220Z,20.60
2022-11-08T01:40:45.194Z,20.80
2022-11-08T01:43:36.018Z,20.80
2022-11-08T01:46:37.597Z,21.00
2022-11-08T01:49:27.427Z,21.20
2022-11-08T01:52:02.270Z,21.30
2022-11-08T01:54:35.832Z,21.60
2022-11-08T01:57:06.474Z,21.70
2022-11-08T01:59:42.789Z,21.70
2022-11-08T02:02:12.177Z,21.80
2022-11-08T02:04:42.154Z,21.90
2022-11-08T02:07:12.299Z,21.90
2022-11-08T02:09:42.684Z,21.90
2022-11-08T02:12:13.862Z,21.70
2022-11-08T02:14:43.253Z,21.70
2022-11-08T02:17:11.793Z,21.30
2022-11-08T02:19:43.084Z,21.00
2022-11-08T02:22:18.470Z,20.80
2022-11-08T02:24:48.570Z,20.90
2022-11-08T02:27:16.560Z,21.00
2022-11-08T02:29:44.703Z,21.10
2022-11-08T02:32:12.723Z,21.10
2022-11-08T02:34:45.548Z,21.20
2022-11-08T02:37:16.661Z,21.10
2022-11-08T02:39:46.243Z,20.90
2022-11-08T02:42:16.574Z,21.10
2022-11-08T02:44:44.498Z,20.50
2022-11-08T02:47:12.727Z,19.90
2022-11-08T02:49:40.771Z,19.70
2022-11-08T02:52:09.022Z,19.10
2022-11-08T02:54:36.982Z,19.00
2022-11-08T02:57:04.984Z,18.90
2022-11-08T02:59:36.600Z,19.10
2022-11-08T03:02:04.713Z,18.60
2022-11-08T03:04:33.012Z,18.90
2022-11-08T03:07:00.939Z,19.00
2022-11-08T03:09:28.872Z,19.20
2022-11-08T03:11:56.814Z,19.30
2022-11-08T03:14:24.775Z,19.30
2022-11-08T03:16:54.374Z,19.20
2022-11-08T03:19:22.319Z,19.20
2022-11-08T03:21:50.360Z,19.10
2022-11-08T03:24:18.373Z,19.20
2022-11-08T03:26:46.298Z,19.40
2022-11-08T03:29:15.506Z,19.70
2022-11-08T03:31:43.448Z,19.80
2022-11-08T03:34:12.773Z,20.00
2022-11-08T03:36:40.735Z,20.20
2022-11-08T03:39:08.695Z,20.50
2022-11-08T03:41:36.595Z,20.70
2022-11-08T03:44:04.560Z,20.70
2022-11-08T03:46:32.501Z,20.50
2022-11-08T03:49:00.479Z,20.20
2022-11-08T03:51:29.767Z,20.20
2022-11-08T03:53:57.743Z,20.40
2022-11-08T03:56:25.678Z,20.60
2022-11-08T03:58:53.614Z,20.70
2022-11-08T04:01:21.612Z,20.70
2022-11-08T04:03:49.617Z,20.90
2022-11-08T04:06:17.579Z,20.90
2022-11-08T04:08:47.070Z,21.00
2022-11-08T04:11:32.533Z,20.80
2022-11-08T04:14:18.183Z,20.60
2022-11-08T04:16:48.673Z,20.10
2022-11-08T04:19:34.294Z,19.80
2022-11-08T04:22:02.258Z,19.80
2022-11-08T04:24:31.532Z,20.10
2022-11-08T04:26:59.531Z,20.30
2022-11-08T04:29:27.485Z,20.60
2022-11-08T04:31:55.480Z,20.70
2022-11-08T04:34:23.481Z,20.90
2022-11-08T04:36:51.410Z,21.00
2022-11-08T04:39:19.564Z,21.00
2022-11-08T04:41:48.870Z,21.00
2022-11-08T04:44:18.337Z,20.90
2022-11-08T04:46:46.302Z,20.80
2022-11-08T04:49:14.213Z,20.90
2022-11-08T04:51:42.173Z,21.10
2022-11-08T04:54:11.754Z,21.00
2022-11-08T04:56:41.607Z,20.90
2022-11-08T04:59:12.241Z,21.10
2022-11-08T05:01:40.673Z,21.00
2022-11-08T05:04:08.765Z,20.80
2022-11-08T05:06:36.724Z,20.70
2022-11-08T05:09:05.054Z,20.80
2022-11-08T05:11:34.157Z,20.60
2022-11-08T05:14:02.294Z,20.70
2022-11-08T05:16:34.684Z,20.70
2022-11-08T05:19:02.707Z,20.70
2022-11-08T05:21:48.407Z,20.70
2022-11-08T05:24:18.465Z,20.80
2022-11-08T05:26:48.161Z,20.90
2022-11-08T05:29:17.246Z,20.90
2022-11-08T05:31:46.989Z,20.80
2022-11-08T05:34:14.942Z,20.50
2022-11-08T05:36:43.159Z,20.50
2022-11-08T05:39:11.197Z,20.20
2022-11-08T05:41:39.116Z,19.60
2022-11-08T05:44:07.157Z,19.40
2022-11-08T05:46:35.233Z,19.30
2022-11-08T05:49:04.516Z,18.90
2022-11-08T05:51:33.174Z,18.90
2022-11-08T05:54:01.149Z,18.90
2022-11-08T05:56:29.174Z,19.00
2022-11-08T05:58:57.133Z,19.30
2022-11-08T06:01:25.207Z,19.60
2022-11-08T06:03:53.216Z,19.60
2022-11-08T06:06:23.121Z,19.40
2022-11-08T06:08:51.805Z,19.80
2022-11-08T06:11:22.593Z,20.10
2022-11-08T06:13:50.799Z,20.30
2022-11-08T06:16:20.273Z,20.60
2022-11-08T06:18:48.732Z,20.80
2022-11-08T06:21:18.865Z,21.00
2022-11-08T06:23:48.814Z,21.10
2022-11-08T06:26:16.758Z,21.00
2022-11-08T06:28:44.717Z,21.00
2022-11-08T06:31:12.680Z,21.20
2022-11-08T06:33:40.602Z,21.30
2022-11-08T06:36:09.416Z,21.30
2022-11-08T06:38:37.421Z,21.30
2022-11-08T06:41:06.820Z,21.50
2022-11-08T06:43:35.118Z,21.60
2022-11-08T06:46:03.357Z,21.70
2022-11-08T06:48:35.950Z,21.80
2022-11-08T06:51:05.107Z,22.10
2022-11-08T06:53:33.747Z,22.30
2022-11-08T06:56:01.812Z,22.50
2022-11-08T06:58:32.082Z,22.60
2022-11-08T07:01:03.346Z,22.60
2022-11-08T07:03:31.946Z,22.60
2022-11-08T07:06:02.735Z,22.80
2022-11-08T07:08:30.848Z,22.90
2022-11-08T07:10:59.121Z,23.00
2022-11-08T07:13:27.310Z,23.00
2022-11-08T07:15:59.854Z,23.30
2022-11-08T07:18:28.981Z,23.60
2022-11-08T07:20:59.995Z,23.80
2022-11-08T07:23:28.037Z,23.90
2022-11-08T07:25:56.202Z,24.00
2022-11-08T07:28:24.148Z,24.10
2022-11-08T07:30:52.126Z,24.20
2022-11-08T07:33:21.839Z,24.30
2022-11-08T07:35:50.113Z,24.40
2022-11-08T07:38:18.029Z,24.50
2022-11-08T07:40:46.014Z,24.50
2022-11-08T07:43:17.281Z,24.60
2022-11-08T07:45:45.253Z,24.70
2022-11-08T07:48:14.416Z,24.80
2022-11-08T07:50:43.992Z,24.90
2022-11-08T07:53:12.238Z,24.90
2022-11-08T07:55:41.244Z,25.00
2022-11-08T07:58:11.303Z,25.10
2022-11-08T08:00:41.225Z,25.20
2022-11-08T08:03:10.820Z,25.30
2022-11-08T08:05:41.863Z,25.40
2022-11-08T08:08:12.266Z,25.50
2022-11-08T08:10:41.173Z,25.70
2022-11-08T08:13:09.398Z,25.80
2022-11-08T08:15:37.398Z,25.80
2022-11-08T08:18:08.030Z,26.00
2022-11-08T08:20:36.346Z,26.10
2022-11-08T08:23:04.274Z,26.20
2022-11-08T08:25:33.570Z,26.40
2022-11-08T08:28:02.140Z,26.30
2022-11-08T08:30:32.022Z,26.50
2022-11-08T08:33:27.367Z,26.60
2022-11-08T08:35:57.503Z,26.70
2022-11-08T08:38:25.549Z,26.60
2022-11-08T08:40:54.837Z,26.80
2022-11-08T08:43:24.051Z,27.00
2022-11-08T08:45:51.995Z,27.00
2022-11-08T08:48:19.930Z,27.00
2022-11-08T08:50:48.154Z,27.20
2022-11-08T08:53:16.515Z,27.20
2022-11-08T08:55:44.770Z,27.20
2022-11-08T08:58:15.517Z,27.30
2022-11-08T09:03:31.708Z,27.30
2022-11-08T09:06:00.166Z,27.50
2022-11-08T09:08:28.737Z,27.60
2022-11-08T09:10:57.681Z,27.60
2022-11-08T09:13:30.747Z,27.50
2022-11-08T09:16:01.238Z,27.70
2022-11-08T09:18:29.276Z,27.80
2022-11-08T09:20:58.503Z,27.80
2022-11-08T09:23:27.141Z,27.90
2022-11-08T09:25:58.791Z,28.00
2022-11-08T09:28:31.153Z,28.00
2022-11-08T09:31:04.958Z,28.10
2022-11-08T09:33:33.438Z,28.20
2022-11-08T09:36:01.993Z,28.30
2022-11-08T09:38:30.468Z,28.40
2022-11-08T09:41:18.953Z,28.40
2022-11-08T09:44:00.044Z,28.20
2022-11-08T09:46:36.615Z,27.70
2022-11-08T09:49:07.615Z,28.20
2022-11-08T09:51:36.884Z,27.70
2022-11-08T09:54:06.480Z,27.90
2022-11-08T09:56:36.810Z,27.30
2022-11-08T09:59:22.098Z,27.30
2022-11-08T10:01:50.417Z,27.50
2022-11-08T10:04:22.524Z,27.30
2022-11-08T10:07:14.168Z,27.30
2022-11-08T10:10:00.733Z,27.60
2022-11-08T10:12:40.506Z,27.60
2022-11-08T10:15:21.863Z,27.00
2022-11-08T10:18:28.710Z,27.30
2022-11-08T10:21:03.887Z,27.10
2022-11-08T10:23:42.979Z,27.40
2022-11-08T10:26:16.785Z,27.00
2022-11-08T10:28:50.184Z,27.40
2022-11-08T10:31:21.026Z,27.90
2022-11-08T10:33:52.565Z,28.20
2022-11-08T10:36:25.385Z,28.30
2022-11-08T10:39:01.764Z,27.70
2022-11-08T10:41:34.784Z,27.30
2022-11-08T10:44:07.587Z,27.00
2022-11-08T10:46:42.314Z,27.70
2022-11-08T10:49:15.167Z,27.30
2022-11-08T10:51:44.718Z,28.00
2022-11-08T10:54:47.512Z,28.20
2022-11-08T10:57:17.351Z,28.60
2022-11-08T10:59:46.548Z,29.10
2022-11-08T11:02:22.671Z,29.40
2022-11-08T11:04:51.304Z,29.90
2022-11-08T11:07:30.607Z,30.40
2022-11-08T11:09:59.060Z,30.30
2022-11-08T11:12:27.028Z,30.40
2022-11-08T11:14:59.733Z,30.40
2022-11-08T11:17:37.275Z,29.90
2022-11-08T11:20:22.103Z,29.70
2022-11-08T11:22:51.874Z,29.50
2022-11-08T11:25:22.330Z,29.30
2022-11-08T11:27:57.986Z,28.90
2022-11-08T11:30:31.905Z,28.30
2022-11-08T11:33:07.072Z,28.70
2022-11-08T11:35:42.847Z,28.50
2022-11-08T11:38:19.662Z,28.20
2022-11-08T11:40:48.528Z,28.80
2022-11-08T11:43:25.308Z,29.30
2022-11-08T11:45:58.978Z,29.50
2022-11-08T11:48:30.107Z,29.10
2022-11-08T11:50:59.266Z,29.40
2022-11-08T11:53:32.815Z,29.40
2022-11-08T11:56:29.142Z,29.30
2022-11-08T11:59:15.556Z,28.90
2022-11-08T12:01:59.319Z,28.70
2022-11-08T12:04:51.189Z,28.40
2022-11-08T12:07:23.204Z,28.80
2022-11-08T12:10:03.384Z,28.20
2022-11-08T12:12:46.072Z,28.90
2022-11-08T12:15:24.356Z,28.80
2022-11-08T12:18:41.010Z,28.80
2022-11-08T12:21:14.804Z,29.50
2022-11-08T12:24:23.955Z,29.80
2022-11-08T12:27:01.557Z,29.30
2022-11-08T12:29:34.896Z,29.00
2022-11-08T12:32:20.683Z,29.10
2022-11-08T12:35:02.367Z,28.60
2022-11-08T12:37:45.683Z,28.40
2022-11-08T12:40:20.659Z,28.30
2022-11-08T12:42:59.256Z,28.70
2022-11-08T12:45:36.386Z,28.50
2022-11-08T12:48:12.135Z,29.10
2022-11-08T12:50:49.767Z,29.10
2022-11-08T12:53:48.679Z,28.70
2022-11-08T12:56:20.473Z,29.20
2022-11-08T12:58:50.493Z,29.10
2022-11-08T13:01:20.496Z,29.20
2022-11-08T13:04:19.954Z,29.40
2022-11-08T13:06:57.204Z,29.50
2022-11-08T13:09:37.407Z,29.10
2022-11-08T13:12:17.388Z,29.50
2022-11-08T13:14:45.501Z,29.80
2022-11-08T13:17:22.868Z,30.10
2022-11-08T13:19:59.479Z,30.30
2022-11-08T13:22:59.102Z,30.30
2022-11-08T13:25:42.873Z,29.90
2022-11-08T13:28:52.816Z,29.90
2022-11-08T13:31:46.260Z,30.00
2022-11-08T13:34:30.990Z,30.30
2022-11-08T13:37:20.783Z,30.30
2022-11-08T13:40:06.126Z,30.30
2022-11-08T13:43:14.448Z,30.40
2022-11-08T13:45:43.266Z,30.40
2022-11-08T13:48:46.637Z,30.40
2022-11-08T13:51:31.214Z,30.50
2022-11-08T13:54:01.167Z,30.40
2022-11-08T13:56:48.159Z,30.30
2022-11-08T14:00:00.101Z,30.40
2022-11-08T14:02:33.110Z,30.40
2022-11-08T14:05:29.510Z,30.40
2022-11-08T14:08:17.830Z,30.30
2022-11-08T14:11:19.361Z,30.30
2022-11-08T14:14:12.661Z,30.30
2022-11-08T14:16:50.102Z,30.30
2022-11-08T14:19:23.256Z,30.30
2022-11-08T14:21:53.780Z,30.20
2022-11-08T14:24:25.337Z,30.10
2022-11-08T14:26:53.439Z,29.50
2022-11-08T14:29:23.684Z,29.00
2022-11-08T14:32:05.131Z,29.00
2022-11-08T14:34:35.153Z,28.70
2022-11-08T14:37:07.121Z,28.50
2022-11-08T14:39:37.123Z,28.30
2022-11-08T14:42:12.960Z,28.10
2022-11-08T14:44:45.086Z,27.70
2022-11-08T14:47:26.010Z,27.40
2022-11-08T14:49:53.999Z,27.30
2022-11-08T14:52:24.486Z,26.70
2022-11-08T14:55:02.461Z,26.40
2022-11-08T14:57:36.953Z,26.20
2022-11-08T15:00:14.549Z,26.30
2022-11-08T15:02:46.635Z,26.10
2022-11-08T15:05:32.512Z,25.90
2022-11-08T15:08:02.599Z,25.90
2022-11-08T15:10:30.721Z,25.80
2022-11-08T15:12:58.942Z,25.40
2022-11-08T15:15:29.660Z,25.60
2022-11-08T15:18:14.229Z,25.70
2022-11-08T15:20:54.039Z,25.80
2022-11-08T15:23:28.039Z,25.70
2022-11-08T15:25:57.590Z,25.80
2022-11-08T15:28:33.713Z,25.30
2022-11-08T15:31:03.659Z,24.80
2022-11-08T15:33:40.758Z,25.10
2022-11-08T15:36:13.218Z,25.10
2022-11-08T15:38:43.432Z,25.00
2022-11-08T15:41:33.150Z,24.70
2022-11-08T15:44:17.744Z,24.30
2022-11-08T15:46:46.101Z,23.50
2022-11-08T15:49:19.071Z,23.60
2022-11-08T15:51:47.241Z,24.20
2022-11-08T15:54:15.642Z,24.40
2022-11-08T15:56:44.283Z,24.70
2022-11-08T15:59:20.913Z,24.60
2022-11-08T16:01:53.805Z,23.70
2022-11-08T16:04:23.421Z,23.00
2022-11-08T16:06:51.836Z,23.30
2022-11-08T16:09:19.836Z,23.60
2022-11-08T16:11:48.569Z,22.90
2022-11-08T16:14:19.314Z,22.70
2022-11-08T16:16:47.686Z,22.70
2022-11-08T16:19:20.315Z,23.60
2022-11-08T16:21:50.161Z,23.50
2022-11-08T16:24:18.811Z,23.70
2022-11-08T16:26:47.725Z,22.60
2022-11-08T16:29:21.420Z,23.00
2022-11-08T16:31:49.992Z,23.50
2022-11-08T16:34:18.250Z,23.20
2022-11-08T16:36:47.633Z,22.90
2022-11-08T16:39:18.677Z,23.10
2022-11-08T16:41:46.934Z,23.70
2022-11-08T16:44:14.973Z,23.10
2022-11-08T16:46:42.945Z,23.40
2022-11-08T16:49:20.745Z,22.70
2022-11-08T16:51:49.660Z,23.10
2022-11-08T16:54:20.906Z,23.00
2022-11-08T16:56:48.897Z,23.10
2022-11-08T16:59:16.859Z,23.00
2022-11-08T17:01:45.406Z,22.90
2022-11-08T17:04:13.454Z,22.90
2022-11-08T17:06:41.521Z,22.80
2022-11-08T17:09:09.600Z,22.90
2022-11-08T17:11:39.706Z,22.80
2022-11-08T17:14:07.839Z,23.10
2022-11-08T17:16:35.881Z,22.70
2022-11-08T17:19:05.187Z,22.40
2022-11-08T17:21:44.682Z,22.20
2022-11-08T17:24:19.751Z,22.20
2022-11-08T17:26:50.738Z,22.60
2022-11-08T17:29:18.916Z,22.40
2022-11-08T17:31:46.905Z,22.30
2022-11-08T17:34:15.062Z,21.70
2022-11-08T17:36:43.350Z,21.50
2022-11-08T17:39:14.046Z,22.10
2022-11-08T17:41:42.271Z,21.90
2022-11-08T17:44:11.587Z,22.40
2022-11-08T17:46:39.520Z,22.50
2022-11-08T17:49:07.711Z,22.10
2022-11-08T17:51:36.584Z,22.60
2022-11-08T17:54:04.784Z,22.60
2022-11-08T17:56:33.002Z,22.60
2022-11-08T17:59:02.558Z,22.00
2022-11-08T18:01:32.186Z,22.40
2022-11-08T18:04:00.206Z,22.50
2022-11-08T18:06:28.252Z,22.20
2022-11-08T18:08:56.751Z,22.80
2022-11-08T18:11:24.889Z,22.80
2022-11-08T18:13:52.866Z,22.80
2022-11-08T18:16:22.707Z,22.80
2022-11-08T18:18:52.533Z,23.10
2022-11-08T18:21:20.949Z,23.00
2022-11-08T18:23:50.165Z,23.20
2022-11-08T18:26:19.327Z,23.50
2022-11-08T18:28:48.520Z,23.60
2022-11-08T18:31:18.469Z,22.50
2022-11-08T18:33:47.126Z,21.90
2022-11-08T18:36:18.189Z,21.70
2022-11-08T18:38:46.211Z,21.50
2022-11-08T18:41:16.011Z,21.70
2022-11-08T18:43:46.505Z,21.90
2022-11-08T18:46:16.387Z,22.40
2022-11-08T18:48:44.869Z,22.60
2022-11-08T18:51:15.125Z,22.70
2022-11-08T18:53:44.557Z,22.10
2022-11-08T18:56:15.193Z,22.10
2022-11-08T18:58:45.330Z,21.60
2022-11-08T19:01:14.170Z,20.90
2022-11-08T19:03:42.508Z,21.70
2022-11-08T19:06:10.470Z,21.70
2022-11-08T19:08:39.495Z,21.80
2022-11-08T19:11:12.917Z,21.90
2022-11-08T19:13:42.195Z,20.90
2022-11-08T19:16:16.739Z,20.90
2022-11-08T19:18:45.736Z,20.70
2022-11-08T19:21:15.790Z,20.30
2022-11-08T19:23:44.068Z,20.00
2022-11-08T19:26:15.783Z,20.00
2022-11-08T19:28:45.471Z,19.70
2022-11-08T19:31:16.709Z,19.50
2022-11-08T19:33:45.046Z,19.70
2022-11-08T19:36:15.485Z,20.20
2022-11-08T19:38:44.093Z,20.20
2022-11-08T19:41:23.864Z,20.80
2022-11-08T19:43:52.037Z,21.20
2022-11-08T19:46:22.438Z,21.40
2022-11-08T19:48:53.955Z,21.90
2022-11-08T19:51:23.189Z,21.90
2022-11-08T19:53:56.005Z,21.70
2022-11-08T19:56:43.778Z,21.90
2022-11-08T19:59:18.951Z,22.10
2022-11-08T20:01:48.023Z,22.40
2022-11-08T20:04:18.346Z,22.50
2022-11-08T20:06:47.085Z,22.20
2022-11-08T20:09:15.106Z,21.90
2022-11-08T20:11:44.768Z,22.10
2022-11-08T20:14:14.156Z,22.30
2022-11-08T20:16:47.879Z,22.40
2022-11-08T20:19:18.835Z,22.70
2022-11-08T20:21:46.865Z,22.70
2022-11-08T20:24:15.916Z,22.50
2022-11-08T20:26:45.669Z,22.70
2022-11-08T20:29:14.684Z,23.00
2022-11-08T20:31:42.935Z,22.50
2022-11-08T20:34:12.958Z,22.80
2022-11-08T20:36:43.822Z,22.80
2022-11-08T20:39:15.521Z,22.50
2022-11-08T20:41:45.137Z,22.80
2022-11-08T20:44:13.600Z,22.70
2022-11-08T20:46:41.875Z,22.80
2022-11-08T20:49:10.126Z,22.90
2022-11-08T20:51:39.264Z,22.60
2022-11-08T20:54:07.414Z,22.40
2022-11-08T20:56:35.742Z,22.50
2022-11-08T20:59:05.696Z,22.00
2022-11-08T21:01:34.274Z,21.20
2022-11-08T21:04:03.045Z,21.30
2022-11-08T21:06:36.011Z,21.70
2022-11-08T21:09:29.876Z,22.00
2022-11-08T21:11:54.063Z,22.00
2022-11-08T21:14:23.884Z,21.90
2022-11-08T21:17:20.405Z,21.80
2022-11-08T21:19:40.320Z,22.00
2022-11-08T21:22:17.271Z,21.70
2022-11-08T21:24:47.809Z,21.70
2022-11-08T21:27:17.705Z,21.10
2022-11-08T21:29:47.026Z,20.60
2022-11-08T21:32:15.053Z,20.60
2022-11-08T21:34:45.752Z,21.00
2022-11-08T21:37:14.236Z,20.30
2022-11-08T21:39:42.568Z,20.80
2022-11-08T21:42:10.493Z,20.40
2022-11-08T21:44:38.424Z,20.90
2022-11-08T21:47:07.708Z,20.90
2022-11-08T21:49:35.742Z,20.80
2022-11-08T21:52:03.713Z,21.30
2022-11-08T21:54:31.656Z,21.50
2022-11-08T21:56:59.568Z,21.60
2022-11-08T21:59:27.709Z,21.60
2022-11-08T22:01:55.601Z,21.70
2022-11-08T22:04:24.847Z,21.60
2022-11-08T22:06:54.974Z,21.40
2022-11-08T22:09:22.927Z,21.50
2022-11-08T22:11:50.974Z,21.10
2022-11-08T22:14:18.915Z,20.60
2022-11-08T22:16:46.889Z,20.20
2022-11-08T22:19:15.274Z,20.10
2022-11-08T22:21:46.104Z,19.90
2022-11-08T22:24:17.082Z,20.00
2022-11-08T22:26:45.369Z,19.80
2022-11-08T22:29:13.565Z,19.60
2022-11-08T22:31:41.978Z,20.20
2022-11-08T22:34:10.802Z,19.50
2022-11-08T22:36:45.041Z,19.40
2022-11-08T22:39:16.011Z,19.10
2022-11-08T22:41:44.392Z,19.30
2022-11-08T22:44:13.240Z,19.10
2022-11-08T22:46:41.607Z,19.60
2022-11-08T22:49:12.288Z,19.40
2022-11-08T22:51:42.150Z,19.80
2022-11-08T22:54:10.232Z,19.90
2022-11-08T22:56:40.173Z,20.10
2022-11-08T22:59:10.619Z,20.20
2022-11-08T23:01:38.590Z,20.00
2022-11-08T23:04:06.746Z,20.00
2022-11-08T23:06:34.702Z,20.50
2022-11-08T23:09:02.692Z,21.00
2022-11-08T23:11:48.087Z,21.00
2022-11-08T23:14:37.473Z,20.60
2022-11-08T23:17:08.091Z,20.20
2022-11-08T23:19:53.810Z,20.00
2022-11-08T23:22:40.270Z,20.40
2022-11-08T23:25:08.948Z,20.40
2022-11-08T23:27:54.411Z,20.00
2022-11-08T23:30:41.450Z,19.90
2022-11-08T23:33:09.449Z,20.20
2022-11-08T23:35:37.395Z,20.20
2022-11-08T23:38:05.300Z,20.50
2022-11-08T23:40:51.041Z,20.70
2022-11-08T23:43:38.135Z,20.90
2022-11-08T23:46:09.186Z,20.90
2022-11-08T23:48:39.169Z,21.00
2022-11-08T23:51:07.960Z,20.90
2022-11-08T23:53:37.222Z,21.20
2022-11-08T23:56:06.281Z,21.30
2022-11-08T23:58:34.644Z,21.50
